Time;durP1;ratioP1;P1;durP2;ratioP2;P2;SDS_P1;SDS_P2;PMS_P1;PMS_P2;Temp;Humidity;BMP_temperature;BMP_pressure;BME280_temperature;BME280_humidity;BME280_pressure;Samples;Min_cycle;Max_cycle;Signal;HPM_P1;HPM_P2
2023/02/15 00:00:27;;;;;;;3.63;2.70;;;;;;;2.27;99.82;101590.69;6347011;28;20119;-72
2023/02/15 00:03:28;;;;;;;7.45;2.90;;;;;;;2.31;100.00;101594.13;6345801;28;20039;-76
2023/02/15 00:06:29;;;;;;;3.15;2.60;;;;;;;2.30;99.99;101594.97;6345744;28;20118;-72
2023/02/15 00:09:32;;;;;;;11.80;3.20;;;;;;;2.38;99.30;101599.25;6345716;28;20038;-76
2023/02/15 00:12:33;;;;;;;7.20;3.28;;;;;;;2.36;99.24;101592.38;6346866;28;20047;-76
2023/02/15 00:15:33;;;;;;;6.70;2.80;;;;;;;2.42;98.38;101600.09;6346823;28;20047;-75
2023/02/15 00:18:35;;;;;;;5.93;2.77;;;;;;;2.29;99.38;101595.84;6345479;28;20040;-75
2023/02/15 00:21:38;;;;;;;8.90;3.63;;;;;;;2.35;98.89;101599.25;6368962;27;20035;-76
2023/02/15 00:24:38;;;;;;;5.22;2.38;;;;;;;2.32;98.13;101596.69;6370907;27;20070;-75
2023/02/15 00:27:39;;;;;;;2.92;2.20;;;;;;;2.30;98.85;101595.81;6370898;27;20035;-72
2023/02/15 00:30:40;;;;;;;8.00;2.75;;;;;;;2.28;98.77;101592.41;6372224;27;20067;-75
2023/02/15 00:33:41;;;;;;;2.92;2.53;;;;;;;2.30;98.68;101592.41;6371900;27;20128;-73
2023/02/15 00:36:45;;;;;;;6.40;3.67;;;;;;;2.14;100.00;101596.72;6371971;27;20455;-76
2023/02/15 00:39:46;;;;;;;8.85;2.67;;;;;;;2.22;99.62;101587.25;6370650;27;20042;-72
2023/02/15 00:42:47;;;;;;;5.68;3.67;;;;;;;2.07;100.00;101592.44;6370630;27;20046;-72
2023/02/15 00:45:48;;;;;;;5.85;3.17;;;;;;;2.28;98.67;101587.25;6370067;27;20479;-72
2023/02/15 00:48:49;;;;;;;6.05;3.10;;;;;;;2.14;99.15;101592.44;6371680;28;20039;-72
2023/02/15 00:51:50;;;;;;;5.18;2.60;;;;;;;2.17;97.92;101599.31;6370474;28;20543;-72
2023/02/15 00:54:53;;;;;;;5.65;3.00;;;;;;;2.13;98.30;101587.28;6370642;28;20039;-73
2023/02/15 00:57:54;;;;;;;10.50;3.78;;;;;;;2.12;99.69;101589.00;6371442;27;20043;-73
2023/02/15 01:01:12;;;;;;;7.47;4.07;;;;;;;2.22;97.82;101576.97;6371932;28;20058;-72
2023/02/15 01:04:19;;;;;;;9.98;3.90;;;;;;;2.03;100.00;101571.00;6371417;28;20130;-72
2023/02/15 01:07:20;;;;;;;8.73;3.47;;;;;;;2.04;100.00;101566.69;6371692;27;20047;-72
2023/02/15 01:10:24;;;;;;;8.50;2.70;;;;;;;2.06;99.60;101577.84;6363470;27;20043;-71
2023/02/15 01:13:27;;;;;;;5.32;2.55;;;;;;;2.04;99.51;101552.13;6345946;28;20050;-74
2023/02/15 01:16:28;;;;;;;6.22;3.13;;;;;;;2.03;98.73;101563.25;6344639;28;20040;-72
2023/02/15 01:19:29;;;;;;;4.45;2.88;;;;;;;1.90;99.35;101559.84;6344678;28;20092;-72
2023/02/15 01:22:32;;;;;;;6.53;3.33;;;;;;;1.97;99.57;101560.69;6344875;28;20036;-72
2023/02/15 01:25:35;;;;;;;7.43;3.30;;;;;;;1.87;100.00;101551.28;6345765;28;20043;-73
2023/02/15 01:28:40;;;;;;;7.55;3.33;;;;;;;1.91;100.00;101551.25;6345764;28;20509;-72
2023/02/15 01:31:41;;;;;;;6.78;3.25;;;;;;;1.86;100.00;101545.28;6344517;28;20040;-72
2023/02/15 01:34:44;;;;;;;10.43;3.33;;;;;;;1.91;100.00;101548.69;6344600;28;20612;-76
2023/02/15 01:37:47;;;;;;;12.68;3.83;;;;;;;1.94;99.63;101543.53;6345651;28;20040;-72
2023/02/15 01:40:53;;;;;;;4.68;3.28;;;;;;;1.76;100.00;101539.28;6344863;28;20040;-75
2023/02/15 01:43:59;;;;;;;3.65;2.90;;;;;;;1.71;100.00;101533.28;6345534;28;20128;-73
2023/02/15 01:46:59;;;;;;;10.75;4.18;;;;;;;1.77;100.00;101534.97;6345540;28;20066;-72
2023/02/15 01:50:20;;;;;;;5.60;2.53;;;;;;;1.73;99.83;101536.72;6345577;28;20479;-75
2023/02/15 01:53:33;;;;;;;4.00;2.78;;;;;;;1.69;100.00;101536.69;6345646;28;20479;-75
2023/02/15 01:56:38;;;;;;;7.65;3.20;;;;;;;1.78;100.00;101531.56;6344391;28;20074;-75
2023/02/15 01:59:46;;;;;;;6.28;3.38;;;;;;;1.73;100.00;101520.41;6348219;28;20062;-72
2023/02/15 02:02:51;;;;;;;6.53;3.20;;;;;;;1.73;100.00;101525.53;6349877;28;20035;-72
2023/02/15 02:05:52;;;;;;;4.55;2.85;;;;;;;1.77;100.00;101528.13;6350063;28;20040;-72
2023/02/15 02:08:56;;;;;;;4.38;2.85;;;;;;;1.76;100.00;101516.09;6349672;28;20178;-75
2023/02/15 02:11:59;;;;;;;6.82;3.35;;;;;;;1.73;100.00;101517.81;6349982;28;20035;-76
2023/02/15 02:15:01;;;;;;;6.13;3.97;;;;;;;1.77;100.00;101517.84;6348415;28;20476;-76
2023/02/15 02:18:22;;;;;;;6.80;3.83;;;;;;;1.79;100.00;101512.66;6349570;28;20119;-75
2023/02/15 02:21:32;;;;;;;5.63;3.00;;;;;;;1.74;100.00;101520.41;6349249;28;20047;-76
2023/02/15 02:25:09;;;;;;;15.25;2.85;;;;;;;1.73;100.00;101520.41;6348148;28;20035;-76
2023/02/15 02:28:51;;;;;;;6.85;3.63;;;;;;;1.68;100.00;101522.13;6348005;28;20092;-72
2023/02/15 02:32:10;;;;;;;5.40;2.47;;;;;;;1.57;100.00;101520.41;6298506;28;20092;-76
2023/02/15 02:35:22;;;;;;;8.70;3.90;;;;;;;1.54;100.00;101512.69;6349058;28;20086;-76
2023/02/15 02:38:27;;;;;;;6.63;3.45;;;;;;;1.54;100.00;101517.84;6348089;28;20073;-76
2023/02/15 02:42:10;;;;;;;11.07;2.50;;;;;;;1.53;100.00;101523.84;6347792;28;20040;-76
2023/02/15 02:45:11;;;;;;;6.63;2.78;;;;;;;1.47;100.00;101528.16;6334964;28;20137;-76
2023/02/15 02:48:21;;;;;;;4.10;2.10;;;;;;;1.52;100.00;101527.25;6347686;28;20136;-76
2023/02/15 02:51:22;;;;;;;6.40;2.60;;;;;;;1.47;100.00;101529.00;6382017;27;20032;-76
2023/02/15 02:54:22;;;;;;;6.10;2.97;;;;;;;1.48;100.00;101528.13;6348765;28;20107;-76
2023/02/15 02:57:26;;;;;;;5.30;2.53;;;;;;;1.50;100.00;101522.97;6347598;28;20499;-76
2023/02/15 03:00:32;;;;;;;12.10;4.25;;;;;;;1.52;100.00;101523.84;6348449;28;20453;-75
2023/02/15 03:03:45;;;;;;;5.55;2.95;;;;;;;1.45;100.00;101529.84;6347137;28;20048;-76
2023/02/15 03:06:59;;;;;;;6.38;2.58;;;;;;;1.43;100.00;101523.84;6347231;28;20495;-76
2023/02/15 03:10:04;;;;;;;3.95;2.42;;;;;;;1.43;100.00;101537.56;6348168;28;20042;-76
2023/02/15 03:13:06;;;;;;;5.88;3.25;;;;;;;1.47;100.00;101539.28;6347058;28;20114;-76
2023/02/15 03:16:27;;;;;;;3.80;2.08;;;;;;;1.38;100.00;101531.56;6346872;28;20063;-76
2023/02/15 03:19:33;;;;;;;5.43;2.97;;;;;;;1.44;100.00;101535.84;6347966;28;20040;-72
2023/02/15 03:22:41;;;;;;;6.90;2.88;;;;;;;1.36;100.00;101536.72;6346732;28;20119;-72
2023/02/15 03:26:00;;;;;;;3.08;2.13;;;;;;;1.26;100.00;101526.44;6347926;28;20051;-72
2023/02/15 03:29:03;;;;;;;4.18;2.70;;;;;;;1.30;100.00;101552.13;6347879;28;20570;-72
2023/02/15 03:32:10;;;;;;;4.90;2.67;;;;;;;1.22;100.00;101550.44;6347498;28;20117;-73
2023/02/15 03:35:14;;;;;;;4.70;2.80;;;;;;;1.29;100.00;101555.56;6347779;28;20096;-76
2023/02/15 03:38:25;;;;;;;6.97;4.00;;;;;;;1.25;100.00;101547.84;6347556;28;20043;-76
2023/02/15 03:41:39;;;;;;;7.35;3.20;;;;;;;1.19;100.00;101552.13;6347559;28;20036;-75
2023/02/15 03:45:15;;;;;;;5.38;2.53;;;;;;;1.12;100.00;101558.09;6347472;28;20088;-72
2023/02/15 03:48:20;;;;;;;6.88;2.80;;;;;;;1.19;100.00;101551.25;6324628;28;20067;-76
2023/02/15 03:51:34;;;;;;;4.93;3.03;;;;;;;1.29;100.00;101559.84;6346021;28;20046;-76
2023/02/15 03:54:42;;;;;;;10.85;3.92;;;;;;;1.28;100.00;101560.72;6347332;28;20046;-76
2023/02/15 04:04:53;;;;;;;6.88;3.33;;;;;;;1.09;100.00;101564.94;6346955;28;20415;-76
2023/02/15 04:07:55;;;;;;;8.20;3.22;;;;;;;1.07;100.00;101570.09;6345796;28;20042;-75
2023/02/15 04:10:56;;;;;;;6.22;3.60;;;;;;;0.93;100.00;101564.91;6345771;28;20044;-75
2023/02/15 04:13:56;;;;;;;11.00;4.43;;;;;;;0.84;100.00;101558.88;6346828;28;20460;-72
2023/02/15 04:16:57;;;;;;;8.57;3.13;;;;;;;0.85;100.00;101576.03;6347022;28;20096;-75
2023/02/15 04:26:37;;;;;;;10.43;4.13;;;;;;;0.54;100.00;101571.63;6368315;27;20521;-73
2023/02/15 04:29:38;;;;;;;4.80;3.47;;;;;;;0.56;100.00;101571.63;6372057;27;20040;-72
2023/02/15 04:32:38;;;;;;;5.80;3.78;;;;;;;0.51;100.00;101563.88;6369362;27;20047;-76
2023/02/15 04:35:44;;;;;;;7.00;4.40;;;;;;;0.44;100.00;101569.84;6370821;27;20043;-76
2023/02/15 04:38:47;;;;;;;8.30;3.72;;;;;;;0.37;100.00;101570.66;6370675;27;20035;-76
2023/02/15 04:41:48;;;;;;;8.80;4.10;;;;;;;0.32;100.00;101573.22;6370690;27;20399;-76
2023/02/15 04:44:49;;;;;;;8.68;4.00;;;;;;;0.32;100.00;101573.22;6371860;27;20047;-76
2023/02/15 04:47:52;;;;;;;9.52;4.05;;;;;;;0.26;100.00;101580.88;6370562;28;20039;-71
2023/02/15 04:50:55;;;;;;;9.13;3.85;;;;;;;0.23;100.00;101572.28;6349095;28;20491;-71
2023/02/15 04:53:56;;;;;;;11.40;4.03;;;;;;;0.14;100.00;101573.97;6346089;28;20044;-75
2023/02/15 04:56:57;;;;;;;7.97;4.15;;;;;;;0.01;100.00;101571.31;6345109;28;20039;-71
2023/02/15 04:59:58;;;;;;;6.30;3.33;;;;;;;-0.01;100.00;101577.28;6345964;28;20100;-75
2023/02/15 05:02:59;;;;;;;7.87;3.47;;;;;;;-0.10;100.00;101573.81;6346052;28;20040;-75
2023/02/15 05:06:00;;;;;;;6.30;4.10;;;;;;;-0.06;100.00;101576.41;6345982;27;20287;-72
2023/02/15 05:09:01;;;;;;;10.52;3.97;;;;;;;-0.07;100.00;101582.38;6352421;28;20046;-75
2023/02/15 05:12:02;;;;;;;7.80;4.90;;;;;;;-0.09;100.00;101580.66;6355847;28;20043;-72
2023/02/15 05:15:03;;;;;;;11.93;5.53;;;;;;;-0.14;100.00;101583.19;6364085;27;20118;-75
2023/02/15 05:18:06;;;;;;;8.48;4.32;;;;;;;-0.14;100.00;101582.34;6355433;27;20044;-76
2023/02/15 05:21:06;;;;;;;22.05;6.10;;;;;;;-0.18;100.00;101575.47;6350068;28;20039;-73
2023/02/15 05:28:19;;;;;;;9.88;5.03;;;;;;;-0.19;100.00;101577.16;6371384;28;20043;-72
2023/02/15 05:31:00;;;;;;;10.57;5.00;;;;;;;-0.29;100.00;101590.75;6368784;28;20046;-72
2023/02/15 05:34:02;;;;;;;10.05;4.03;;;;;;;-0.28;100.00;101577.94;6374815;27;20059;-72
2023/02/15 05:37:02;;;;;;;10.00;4.57;;;;;;;-0.34;100.00;101588.16;6363747;27;20132;-76
2023/02/15 05:40:04;;;;;;;15.45;6.65;;;;;;;-0.32;100.00;101591.59;6374909;27;20047;-76
2023/02/15 05:43:07;;;;;;;15.80;8.10;;;;;;;-0.32;100.00;101591.59;6373359;27;20060;-76
2023/02/15 05:46:08;;;;;;;15.98;7.57;;;;;;;-0.30;100.00;101592.47;6374837;27;20031;-75
2023/02/15 05:49:11;;;;;;;18.65;7.03;;;;;;;-0.27;100.00;101599.31;6374399;27;20043;-76
2023/02/15 05:52:12;;;;;;;14.43;6.10;;;;;;;-0.27;100.00;101605.34;6361087;27;20075;-76
2023/02/15 05:55:13;;;;;;;14.95;5.70;;;;;;;-0.23;100.00;101601.06;6349389;28;20047;-76
2023/02/15 05:58:14;;;;;;;13.90;5.25;;;;;;;-0.22;100.00;101601.09;6350326;28;20048;-76
2023/02/15 06:01:17;;;;;;;20.48;8.55;;;;;;;-0.14;100.00;101613.13;6350380;28;20046;-76
2023/02/15 06:04:18;;;;;;;10.98;6.93;;;;;;;-0.11;100.00;101615.72;6386099;27;20118;-75
2023/02/15 06:07:18;;;;;;;32.60;9.65;;;;;;;-0.09;100.00;101611.44;6367371;27;20558;-72
2023/02/15 06:10:19;;;;;;;10.88;5.93;;;;;;;-0.07;100.00;101612.31;6370434;27;20092;-72
2023/02/15 06:13:20;;;;;;;9.98;5.40;;;;;;;0.01;100.00;101618.38;6363574;27;20047;-76
2023/02/15 06:16:22;;;;;;;18.38;8.95;;;;;;;0.02;100.00;101625.19;6375582;27;20114;-75
2023/02/15 06:19:23;;;;;;;12.90;7.22;;;;;;;0.05;100.00;101621.81;6373919;27;20342;-76
2023/02/15 06:22:23;;;;;;;25.13;6.03;;;;;;;0.11;100.00;101627.84;6375148;27;20594;-75
2023/02/15 06:25:24;;;;;;;19.65;5.50;;;;;;;0.20;100.00;101630.47;6375266;27;20486;-75
2023/02/15 06:28:28;;;;;;;10.23;5.37;;;;;;;0.23;100.00;101632.22;6375118;27;20039;-76
2023/02/15 06:31:31;;;;;;;10.30;5.68;;;;;;;0.39;100.00;101630.59;6373657;27;20047;-76
2023/02/15 06:34:33;;;;;;;10.60;5.20;;;;;;;0.40;100.00;101638.31;6375041;27;20043;-76
2023/02/15 06:37:33;;;;;;;11.43;5.82;;;;;;;0.57;100.00;101635.00;6373605;27;20050;-76
2023/02/15 06:40:34;;;;;;;6.97;3.72;;;;;;;0.70;100.00;101634.22;6373619;27;20118;-75
2023/02/15 06:43:35;;;;;;;9.73;6.22;;;;;;;0.88;100.00;101633.41;6372423;27;20529;-75
2023/02/15 06:46:35;;;;;;;11.55;5.80;;;;;;;0.98;100.00;101637.75;6373464;27;20101;-76
2023/02/15 06:49:42;;;;;;;10.23;3.75;;;;;;;1.11;100.00;101630.97;6373256;27;20478;-73
2023/02/15 06:52:45;;;;;;;6.95;3.92;;;;;;;1.22;100.00;101628.41;6374139;27;20419;-74
2023/02/15 06:55:46;;;;;;;16.05;6.38;;;;;;;1.38;100.00;101631.84;6374964;27;20043;-72
2023/02/15 06:58:49;;;;;;;34.80;11.02;;;;;;;1.51;100.00;101628.47;6374073;27;20096;-73
2023/02/15 07:01:50;;;;;;;21.75;11.05;;;;;;;1.72;100.00;101617.34;6373987;27;20554;-72
2023/02/15 07:04:51;;;;;;;19.23;8.23;;;;;;;1.74;100.00;101622.50;6373903;27;20043;-72
2023/02/15 07:07:51;;;;;;;13.52;5.75;;;;;;;1.87;100.00;101625.91;6373851;27;20039;-72
2023/02/15 07:10:54;;;;;;;11.30;4.72;;;;;;;2.08;100.00;101630.19;6373796;27;20175;-72
2023/02/15 07:13:54;;;;;;;9.88;3.78;;;;;;;2.30;100.00;101628.47;6372593;27;20114;-76
2023/02/15 07:16:57;;;;;;;7.07;3.83;;;;;;;2.40;100.00;101632.75;6372509;27;20379;-75
2023/02/15 07:20:01;;;;;;;10.60;4.68;;;;;;;2.55;99.45;101627.56;6373566;27;20046;-75
2023/02/15 07:23:02;;;;;;;11.57;5.88;;;;;;;2.65;99.50;101635.25;6372119;27;20039;-76
2023/02/15 07:26:05;;;;;;;14.02;4.95;;;;;;;2.73;98.05;101629.22;6372207;27;20069;-75
2023/02/15 07:29:06;;;;;;;5.53;2.90;;;;;;;2.84;96.69;101629.16;6373333;27;20035;-76
2023/02/15 07:32:07;;;;;;;6.25;4.53;;;;;;;3.16;95.19;101634.19;6371925;27;20548;-73
2023/02/15 07:35:07;;;;;;;9.35;4.82;;;;;;;3.18;93.24;101626.44;6373314;27;20421;-74
2023/02/15 07:38:11;;;;;;;7.55;4.93;;;;;;;3.48;92.21;101628.00;6372032;27;20391;-72
2023/02/15 07:41:14;;;;;;;9.65;4.68;;;;;;;3.57;90.87;101624.50;6373064;27;20035;-73
2023/02/15 07:44:16;;;;;;;9.15;4.32;;;;;;;3.71;90.60;101620.09;6371777;27;20039;-76
2023/02/15 07:47:17;;;;;;;8.85;5.07;;;;;;;3.95;88.04;101626.75;6373002;27;20039;-73
2023/02/15 07:50:18;;;;;;;9.00;5.22;;;;;;;3.90;86.90;101628.53;6372726;27;20039;-76
2023/02/15 07:53:21;;;;;;;12.70;5.60;;;;;;;4.00;85.55;101625.00;6371566;27;20047;-76
2023/02/15 07:56:27;;;;;;;9.82;5.40;;;;;;;4.17;85.38;101637.75;6371508;27;20050;-76
2023/02/15 07:59:28;;;;;;;7.43;4.60;;;;;;;4.31;84.01;101632.47;6372746;27;20039;-76
2023/02/15 08:02:30;;;;;;;10.82;5.22;;;;;;;4.49;82.87;101631.44;6371270;27;20481;-76
2023/02/15 08:05:30;;;;;;;6.45;4.45;;;;;;;4.55;82.22;101633.06;6371389;27;20039;-76
2023/02/15 08:08:34;;;;;;;13.90;6.05;;;;;;;4.75;81.00;101632.88;6372494;27;20046;-76
2023/02/15 08:11:37;;;;;;;12.88;6.28;;;;;;;4.69;80.34;101620.84;6371298;27;20418;-76
2023/02/15 08:14:38;;;;;;;14.63;6.40;;;;;;;4.91;80.06;101631.81;6372260;27;20487;-73
2023/02/15 08:17:40;;;;;;;9.88;5.88;;;;;;;5.16;78.58;101628.91;6371030;27;20046;-74
2023/02/15 08:20:40;;;;;;;12.40;5.65;;;;;;;5.23;76.72;101620.19;6372191;27;20479;-74
2023/02/15 08:23:41;;;;;;;9.48;4.88;;;;;;;5.19;75.43;101634.06;6370706;27;20039;-74
2023/02/15 08:26:46;;;;;;;9.82;5.78;;;;;;;5.45;75.25;101624.16;6371065;27;20422;-73
2023/02/15 08:29:47;;;;;;;14.15;6.30;;;;;;;5.35;74.05;101624.31;6370982;27;20046;-73
2023/02/15 08:32:48;;;;;;;9.50;4.95;;;;;;;5.59;73.83;101626.56;6370649;27;20055;-76
2023/02/15 08:35:55;;;;;;;7.57;5.05;;;;;;;5.70;71.74;101621.19;6371998;27;20120;-76
2023/02/15 08:39:00;;;;;;;11.27;5.55;;;;;;;5.80;73.81;101622.75;6370766;27;20069;-76
2023/02/15 08:42:02;;;;;;;13.25;6.35;;;;;;;5.79;72.24;101620.22;6370616;27;20050;-73
2023/02/15 08:45:03;;;;;;;9.30;5.65;;;;;;;6.07;71.54;101617.19;6370482;27;20043;-73
2023/02/15 08:48:06;;;;;;;11.23;6.40;;;;;;;6.21;71.13;101620.41;6370630;28;20043;-76
2023/02/15 08:51:10;;;;;;;10.95;6.30;;;;;;;6.39;69.40;101622.66;6371835;27;20114;-77
2023/02/15 08:54:17;;;;;;;15.13;6.43;;;;;;;6.30;66.91;101620.25;6370464;28;20395;-76
2023/02/15 08:57:18;;;;;;;10.18;5.55;;;;;;;6.33;66.71;101615.00;6370473;28;20047;-73
2023/02/15 09:00:22;;;;;;;7.93;4.82;;;;;;;6.51;68.02;101618.13;6371652;27;20035;-76
2023/02/15 09:03:23;;;;;;;12.07;6.80;;;;;;;6.31;66.60;101618.50;6371479;27;20031;-76
2023/02/15 09:06:27;;;;;;;15.35;5.95;;;;;;;6.47;67.60;101617.34;6371211;27;20043;-76
2023/02/15 09:09:28;;;;;;;12.13;6.72;;;;;;;6.79;71.42;101621.03;6375750;27;20039;-76
2023/02/15 09:12:29;;;;;;;15.90;7.28;;;;;;;6.62;70.65;101619.63;6376975;27;20047;-76
2023/02/15 09:15:32;;;;;;;12.73;6.35;;;;;;;6.82;70.61;101624.41;6375546;27;20410;-76
2023/02/15 09:18:37;;;;;;;14.85;7.38;;;;;;;7.07;69.36;101621.31;6375560;27;20065;-76
2023/02/15 09:21:38;;;;;;;17.42;7.13;;;;;;;7.28;68.91;101621.72;6376799;27;20519;-76
2023/02/15 09:24:39;;;;;;;10.30;6.68;;;;;;;7.28;70.37;101613.94;6376421;27;20043;-76
2023/02/15 09:27:40;;;;;;;12.38;6.35;;;;;;;7.51;68.25;101613.41;6375236;27;20043;-77
2023/02/15 09:30:41;;;;;;;16.23;7.80;;;;;;;7.41;68.46;101610.16;6376518;27;20050;-77
2023/02/15 09:33:43;;;;;;;13.80;7.47;;;;;;;7.32;67.33;101613.84;6375783;27;20051;-76
2023/02/15 09:36:51;;;;;;;12.07;6.93;;;;;;;7.44;66.08;101618.75;6375068;27;20043;-77
2023/02/15 09:39:52;;;;;;;13.77;7.72;;;;;;;7.53;66.44;101620.28;6374903;27;20544;-76
2023/02/15 09:43:18;;;;;;;13.00;6.88;;;;;;;7.56;66.66;101615.00;6374661;27;20039;-77
2023/02/15 09:46:24;;;;;;;15.55;6.57;;;;;;;7.77;66.56;101608.44;6375970;27;20058;-77
2023/02/15 09:49:40;;;;;;;11.68;7.10;;;;;;;7.72;64.14;101605.13;6374679;27;20050;-77
2023/02/15 09:53:05;;;;;;;13.50;7.20;;;;;;;7.47;64.08;101605.69;6374712;27;20148;-77
2023/02/15 09:56:24;;;;;;;11.20;6.07;;;;;;;7.62;63.15;101596.69;6375508;27;20535;-74
2023/02/15 09:59:40;;;;;;;18.40;7.50;;;;;;;7.82;64.34;101601.41;6376049;27;20077;-77
2023/02/15 10:03:11;;;;;;;12.80;7.53;;;;;;;7.65;63.40;101583.59;6375365;27;20475;-74
2023/02/15 10:06:42;;;;;;;16.90;7.65;;;;;;;7.72;63.48;101594.72;6374076;27;20039;-77
2023/02/15 10:09:49;;;;;;;17.42;8.35;;;;;;;7.73;62.74;101583.44;6374180;27;20039;-73
2023/02/15 10:13:27;;;;;;;16.23;7.93;;;;;;;7.86;63.30;101587.44;6374211;27;20066;-76
2023/02/15 10:16:36;;;;;;;11.23;6.78;;;;;;;7.98;63.35;101582.81;6373553;27;20055;-76
2023/02/15 10:20:10;;;;;;;14.40;7.60;;;;;;;7.90;64.00;101577.78;6372645;27;20398;-76
2023/02/15 10:23:17;;;;;;;17.85;7.70;;;;;;;8.34;63.05;101573.19;6373746;27;20050;-73
2023/02/15 10:26:19;;;;;;;19.90;7.45;;;;;;;8.59;61.56;101573.38;6373630;27;20497;-73
2023/02/15 10:29:37;;;;;;;18.13;8.80;;;;;;;8.25;60.88;101576.03;6373540;27;20155;-73
2023/02/15 10:32:59;;;;;;;14.25;7.40;;;;;;;8.47;61.55;101568.53;6374711;27;20180;-76
2023/02/15 10:36:16;;;;;;;17.13;8.25;;;;;;;8.62;59.06;101562.03;6373463;27;20059;-73
2023/02/15 10:39:33;;;;;;;17.77;6.72;;;;;;;8.82;60.77;101561.44;6373565;27;20038;-73
2023/02/15 10:43:06;;;;;;;18.92;8.52;;;;;;;8.50;59.56;101558.00;6373222;27;20514;-73
2023/02/15 10:46:33;;;;;;;16.98;8.05;;;;;;;8.93;60.45;101548.09;6357440;27;20074;-76
2023/02/15 10:49:43;;;;;;;17.60;7.88;;;;;;;8.30;59.14;101550.75;6345408;28;20496;-76
2023/02/15 10:53:24;;;;;;;17.77;7.40;;;;;;;8.65;58.71;101559.34;6348980;28;20044;-73
2023/02/15 10:56:43;;;;;;;13.23;6.45;;;;;;;9.07;58.47;101545.94;6349020;28;20069;-76
2023/02/15 10:59:56;;;;;;;17.77;7.93;;;;;;;8.96;58.41;101550.63;6347444;28;20511;-73
2023/02/15 11:03:02;;;;;;;;;;;;;;;8.16;59.32;101552.88;6347975;28;20040;-73
2023/02/15 11:06:12;;;;;;;14.88;6.97;;;;;;;8.97;59.42;101550.56;6348691;28;19962;-73
2023/02/15 11:09:17;;;;;;;17.10;8.00;;;;;;;8.59;58.44;101546.53;6348674;28;20517;-73
2023/02/15 11:12:26;;;;;;;17.40;6.78;;;;;;;8.33;58.67;101540.25;6348574;28;20562;-72
2023/02/15 11:15:42;;;;;;;18.58;6.95;;;;;;;9.00;59.15;101537.47;6348043;28;20118;-73
2023/02/15 11:19:05;;;;;;;12.27;7.57;;;;;;;9.35;57.13;101542.44;6347061;28;20505;-73
2023/02/15 11:22:09;;;;;;;18.10;7.63;;;;;;;8.78;57.14;101536.41;6346982;28;20047;-73
2023/02/15 11:25:25;;;;;;;14.15;6.97;;;;;;;8.77;57.71;101545.09;6329955;28;20048;-73
2023/02/15 11:28:33;;;;;;;15.05;6.60;;;;;;;8.81;56.88;101545.00;6346637;28;20093;-73
2023/02/15 11:31:46;;;;;;;13.15;6.75;;;;;;;9.19;58.35;101535.13;6346322;28;20114;-73
2023/02/15 11:34:59;;;;;;;16.10;7.60;;;;;;;9.19;56.31;101527.31;6346749;28;20040;-73
2023/02/15 11:38:17;;;;;;;15.40;7.07;;;;;;;8.74;56.57;101525.22;6346679;28;20051;-72
2023/02/15 11:41:27;;;;;;;13.48;6.65;;;;;;;9.14;56.80;101530.97;6346793;28;20049;-76
2023/02/15 11:44:32;;;;;;;11.30;5.68;;;;;;;8.80;56.69;101524.22;6346171;28;20044;-73
2023/02/15 11:47:33;;;;;;;13.73;7.60;;;;;;;9.15;55.64;101523.09;6346559;28;20258;-74
2023/02/15 11:50:34;;;;;;;14.75;6.43;;;;;;;9.26;55.31;101521.00;6346702;28;20051;-76
2023/02/15 11:53:37;;;;;;;11.38;6.13;;;;;;;9.31;55.61;101515.66;6380875;27;20050;-76
2023/02/15 11:56:38;;;;;;;11.25;5.60;;;;;;;9.15;56.17;101517.91;6346100;28;20039;-76
2023/02/15 11:59:42;;;;;;;16.05;7.13;;;;;;;9.46;55.82;101519.53;6346388;28;20080;-76
2023/02/15 12:02:48;;;;;;;11.63;6.60;;;;;;;9.10;56.10;101511.13;6345952;28;20441;-76
2023/02/15 12:05:56;;;;;;;13.13;6.57;;;;;;;8.98;56.23;101508.03;6346105;28;20074;-76
2023/02/15 12:09:06;;;;;;;14.95;6.07;;;;;;;9.31;57.18;101504.38;6347376;28;20089;-76
2023/02/15 12:12:25;;;;;;;13.90;7.07;;;;;;;8.98;56.59;101499.38;6347005;28;20125;-76
2023/02/15 12:15:32;;;;;;;13.55;6.43;;;;;;;9.01;56.08;101489.69;6345662;28;20044;-76
2023/02/15 12:18:47;;;;;;;17.30;7.55;;;;;;;8.93;57.14;101498.66;6345562;28;20070;-72
2023/02/15 12:21:52;;;;;;;15.32;6.90;;;;;;;8.86;57.04;101490.19;6345574;28;20491;-76
2023/02/15 12:25:15;;;;;;;17.95;7.25;;;;;;;9.19;55.57;101487.41;6345344;28;20051;-73
2023/02/15 12:28:26;;;;;;;12.10;6.28;;;;;;;9.11;55.31;101492.00;6344710;28;20047;-76
2023/02/15 12:31:49;;;;;;;15.23;7.57;;;;;;;9.38;54.91;101492.88;6345372;28;20044;-76
2023/02/15 12:34:51;;;;;;;;;;;;;;;9.20;55.47;101484.72;6345793;28;20050;-76
2023/02/15 12:37:55;;;;;;;15.45;5.20;;;;;;;9.41;55.69;101483.19;6379469;27;19972;-76
2023/02/15 12:41:23;;;;;;;9.70;5.32;;;;;;;9.12;56.54;101478.97;6346040;28;20046;-76
2023/02/15 12:44:28;;;;;;;17.00;7.22;;;;;;;9.10;55.74;101474.69;6346810;28;20039;-76
2023/02/15 12:47:32;;;;;;;14.05;7.10;;;;;;;9.06;56.09;101468.75;6379437;27;20063;-76
2023/02/15 12:50:33;;;;;;;16.23;8.05;;;;;;;9.10;55.00;101466.88;6345075;28;20047;-73
2023/02/15 12:53:36;;;;;;;14.05;7.18;;;;;;;9.28;54.74;101463.66;6344996;28;20051;-73
2023/02/15 12:56:36;;;;;;;14.25;7.57;;;;;;;9.21;55.86;101460.41;6344817;28;20123;-73
2023/02/15 12:59:51;;;;;;;19.73;9.20;;;;;;;8.57;57.08;101460.69;6344975;28;20046;-73
2023/02/15 13:02:54;;;;;;;17.58;7.90;;;;;;;9.01;56.56;101462.81;6345947;28;20046;-72
2023/02/15 13:05:57;;;;;;;17.73;7.45;;;;;;;9.17;56.56;101460.56;6344589;28;20039;-76
2023/02/15 13:09:11;;;;;;;14.98;6.53;;;;;;;9.18;56.13;101464.88;6344846;28;20051;-76
2023/02/15 13:12:21;;;;;;;13.27;6.85;;;;;;;8.79;56.72;101457.41;6346087;28;20043;-73
2023/02/15 13:15:56;;;;;;;13.68;6.28;;;;;;;9.06;57.06;101456.56;6345919;28;20043;-76
2023/02/15 13:19:05;;;;;;;13.20;7.40;;;;;;;9.38;55.92;101441.59;6337649;27;20134;-76
2023/02/15 13:22:13;;;;;;;12.18;6.57;;;;;;;9.42;55.03;101443.22;6344745;28;20047;-77
2023/02/15 13:25:21;;;;;;;10.75;6.20;;;;;;;9.57;55.94;101441.81;6344703;28;20047;-73
2023/02/15 13:28:31;;;;;;;16.80;6.88;;;;;;;9.54;56.69;101441.94;6344446;28;20043;-74
2023/02/15 13:31:33;;;;;;;13.73;6.30;;;;;;;9.57;56.08;101431.41;6345816;28;20066;-73
2023/02/15 13:34:36;;;;;;;14.53;7.37;;;;;;;9.30;56.18;101443.63;6345538;28;20060;-73
2023/02/15 13:37:55;;;;;;;14.32;7.38;;;;;;;8.67;57.81;101430.06;6345586;28;20484;-73
2023/02/15 13:41:04;;;;;;;14.98;6.50;;;;;;;8.99;57.53;101430.75;6345693;28;20063;-77
2023/02/15 13:44:19;;;;;;;18.63;7.75;;;;;;;8.62;58.36;101427.56;6345646;28;20578;-74
2023/02/15 13:47:57;;;;;;;18.33;7.38;;;;;;;8.96;58.63;101430.88;6345449;28;20042;-73
2023/02/15 13:51:13;;;;;;;14.15;6.65;;;;;;;8.52;58.79;101433.09;6345551;28;20460;-74
2023/02/15 13:55:06;;;;;;;12.50;6.47;;;;;;;8.58;59.05;101425.13;6347904;28;20097;-77
2023/02/15 13:58:42;;;;;;;14.80;7.00;;;;;;;8.95;58.53;101434.38;6332075;28;20051;-73
2023/02/15 14:01:53;;;;;;;16.48;7.30;;;;;;;8.84;59.26;101429.50;6348876;28;20040;-74
2023/02/15 14:05:42;;;;;;;15.70;7.13;;;;;;;8.38;59.34;101431.75;6348685;28;20119;-77
2023/02/15 14:09:05;;;;;;;14.05;7.85;;;;;;;8.33;59.90;101430.19;6340841;28;20128;-77
2023/02/15 14:12:24;;;;;;;19.38;6.97;;;;;;;8.64;58.95;101428.38;6348690;28;20083;-77
2023/02/15 14:15:52;;;;;;;12.77;6.03;;;;;;;8.57;59.07;101426.03;6348624;28;20054;-77
2023/02/15 14:19:24;;;;;;;14.75;6.65;;;;;;;8.23;59.19;101421.78;6348566;28;20060;-77
2023/02/15 14:22:35;;;;;;;12.80;5.97;;;;;;;8.55;59.60;101422.63;6343853;27;20151;-77
2023/02/15 14:25:44;;;;;;;13.50;6.53;;;;;;;8.43;60.27;101426.44;6349645;28;20043;-77
2023/02/15 14:29:13;;;;;;;14.73;6.20;;;;;;;7.83;61.51;101433.34;6349467;28;20047;-74
2023/02/15 14:32:27;;;;;;;18.52;8.52;;;;;;;7.94;61.50;101427.84;6347709;28;20483;-75
2023/02/15 14:35:30;;;;;;;18.45;7.82;;;;;;;7.67;62.05;101419.91;6349161;27;20047;-74
2023/02/15 14:38:55;;;;;;;15.85;7.07;;;;;;;7.95;62.69;101417.41;6367763;27;20031;-73
2023/02/15 14:42:04;;;;;;;18.13;7.70;;;;;;;7.79;62.46;101418.72;6349187;28;20040;-74
2023/02/15 14:45:13;;;;;;;16.67;7.72;;;;;;;7.80;62.23;101425.63;6351452;27;20039;-74
2023/02/15 14:49:21;;;;;;;15.02;6.65;;;;;;;7.94;63.25;101428.69;6370938;27;20042;-77